Time;durP1;ratioP1;P1;durP2;ratioP2;P2;SDS_P1;SDS_P2;PMS_P1;PMS_P2;Temp;Humidity;BMP_temperature;BMP_pressure;BME280_temperature;BME280_humidity;BME280_pressure;Samples;Min_cycle;Max_cycle;Signal;HPM_P1;HPM_P2
2024/01/17 00:00:09;;;;;;;;;;;22.10;32.60;;;;;;5073192;28;19920;-64
2024/01/17 00:02:35;;;;;;;;;;;22.30;32.50;;;;;;5073438;28;19947;-64
2024/01/17 00:05:04;;;;;;;;;;;22.50;32.10;;;;;;5073360;28;19971;-64
2024/01/17 00:07:29;;;;;;;;;;;22.60;31.90;;;;;;5072329;28;19920;-64
2024/01/17 00:09:55;;;;;;;;;;;22.70;31.70;;;;;;5072253;28;20370;-64
2024/01/17 00:12:20;;;;;;;;;;;22.80;31.50;;;;;;5072141;28;20019;-64
2024/01/17 00:14:46;;;;;;;;;;;23.00;31.40;;;;;;5071528;28;19924;-64
2024/01/17 00:17:12;;;;;;;;;;;23.00;31.30;;;;;;5105676;28;19975;-64
2024/01/17 00:19:37;;;;;;;;;;;23.10;31.20;;;;;;5105951;28;20014;-64
2024/01/17 00:22:06;;;;;;;;;;;23.10;31.10;;;;;;5071759;28;19920;-64
2024/01/17 00:24:31;;;;;;;;;;;23.10;31.00;;;;;;5105960;28;19928;-64
2024/01/17 00:26:57;;;;;;;;;;;23.20;31.10;;;;;;5105775;28;19920;-64
2024/01/17 00:29:23;;;;;;;;;;;23.20;31.00;;;;;;5105395;28;19943;-64
2024/01/17 00:31:48;;;;;;;;;;;23.20;30.90;;;;;;5105931;28;19925;-64
2024/01/17 00:34:14;;;;;;;;;;;23.30;30.80;;;;;;5105298;28;19982;-65
2024/01/17 00:36:39;;;;;;;;;;;23.30;30.70;;;;;;5071749;28;20028;-64
2024/01/17 00:39:05;;;;;;;;;;;23.30;30.80;;;;;;5072705;28;20336;-64
2024/01/17 00:41:30;;;;;;;;;;;23.20;30.80;;;;;;5071285;28;20387;-64
2024/01/17 00:43:56;;;;;;;;;;;23.20;30.70;;;;;;5105534;28;20007;-65
2024/01/17 00:46:21;;;;;;;;;;;23.20;30.80;;;;;;5105231;28;19920;-64
2024/01/17 00:48:47;;;;;;;;;;;23.20;30.70;;;;;;5105424;28;19920;-64
2024/01/17 00:51:27;;;;;;;;;;;23.20;30.90;;;;;;5105385;28;20439;-64
2024/01/17 00:53:53;;;;;;;;;;;23.10;30.80;;;;;;5105151;28;19920;-65
2024/01/17 00:56:19;;;;;;;;;;;23.00;30.80;;;;;;5105347;28;19974;-64
2024/01/17 00:58:44;;;;;;;;;;;22.90;30.80;;;;;;5105027;28;20283;-64
2024/01/17 01:01:10;;;;;;;;;;;22.90;30.80;;;;;;5072622;28;19920;-64
2024/01/17 01:03:36;;;;;;;;;;;22.90;30.90;;;;;;5072518;28;20294;-64
2024/01/17 01:06:01;;;;;;;;;;;22.90;31.00;;;;;;5105204;28;19974;-64
2024/01/17 01:08:27;;;;;;;;;;;22.80;31.00;;;;;;5071089;28;20411;-64
2024/01/17 01:10:52;;;;;;;;;;;22.70;30.90;;;;;;5071200;28;20032;-64
2024/01/17 01:13:18;;;;;;;;;;;22.70;31.10;;;;;;5071338;28;19939;-64
2024/01/17 01:15:43;;;;;;;;;;;22.70;31.10;;;;;;5071957;28;19932;-64
2024/01/17 01:18:09;;;;;;;;;;;22.70;31.00;;;;;;5104769;28;19920;-64
2024/01/17 01:20:37;;;;;;;;;;;22.70;31.00;;;;;;5105063;28;19990;-65
2024/01/17 01:23:03;;;;;;;;;;;22.70;30.90;;;;;;5105307;28;19920;-64
2024/01/17 01:25:31;;;;;;;;;;;22.70;31.00;;;;;;5104677;28;19920;-64
2024/01/17 01:27:57;;;;;;;;;;;22.70;31.00;;;;;;5070843;28;19999;-65
2024/01/17 01:30:22;;;;;;;;;;;22.70;31.00;;;;;;5071050;28;20399;-64
2024/01/17 01:32:48;;;;;;;;;;;22.70;30.90;;;;;;5071195;28;20061;-64
2024/01/17 01:35:14;;;;;;;;;;;22.70;30.90;;;;;;5072311;28;19931;-64
2024/01/17 01:37:39;;;;;;;;;;;22.80;30.90;;;;;;5071191;28;19973;-65
2024/01/17 01:40:08;;;;;;;;;;;22.80;30.90;;;;;;5104613;28;19925;-65
2024/01/17 01:42:34;;;;;;;;;;;22.80;30.90;;;;;;5070593;28;20453;-64
2024/01/17 01:45:00;;;;;;;;;;;22.80;30.80;;;;;;5072336;28;19920;-65
2024/01/17 01:47:25;;;;;;;;;;;22.80;30.80;;;;;;5070928;28;20354;-64
2024/01/17 01:49:51;;;;;;;;;;;22.80;30.60;;;;;;5072072;28;19963;-64
2024/01/17 01:52:20;;;;;;;;;;;22.90;30.70;;;;;;5071880;28;19920;-64
2024/01/17 01:54:46;;;;;;;;;;;22.90;30.70;;;;;;5070743;28;19929;-64
2024/01/17 01:57:11;;;;;;;;;;;22.80;30.60;;;;;;5071771;28;20393;-64
2024/01/17 01:59:37;;;;;;;;;;;22.80;30.70;;;;;;5104755;28;19921;-64
2024/01/17 02:02:04;;;;;;;;;;;22.70;30.80;;;;;;5070635;28;20398;-64
2024/01/17 02:04:31;;;;;;;;;;;22.70;30.80;;;;;;5070847;28;19997;-65
2024/01/17 02:06:58;;;;;;;;;;;22.60;30.80;;;;;;5070955;28;19921;-65
2024/01/17 02:09:28;;;;;;;;;;;22.60;30.80;;;;;;5104699;28;19920;-64
2024/01/17 02:11:54;;;;;;;;;;;22.60;30.80;;;;;;5104645;28;19920;-64
2024/01/17 02:14:20;;;;;;;;;;;22.60;30.80;;;;;;5103938;28;20398;-64
2024/01/17 02:16:46;;;;;;;;;;;22.60;30.80;;;;;;5104497;28;19977;-65
2024/01/17 02:19:15;;;;;;;;;;;22.60;30.90;;;;;;5071890;28;20318;-64
2024/01/17 02:21:41;;;;;;;;;;;22.50;30.80;;;;;;5072264;28;19946;-64
2024/01/17 02:24:14;;;;;;;;;;;22.50;30.90;;;;;;5108380;28;19920;-64
2024/01/17 02:26:40;;;;;;;;;;;22.50;31.00;;;;;;5108328;28;19920;-64
2024/01/17 02:29:05;;;;;;;;;;;22.50;31.10;;;;;;5107932;28;20406;-64
2024/01/17 02:31:31;;;;;;;;;;;22.50;31.00;;;;;;5075298;28;19928;-64
2024/01/17 02:33:56;;;;;;;;;;;22.40;30.90;;;;;;5108191;28;19920;-64
2024/01/17 02:36:25;;;;;;;;;;;22.40;31.00;;;;;;5075177;28;19974;-64
2024/01/17 02:38:50;;;;;;;;;;;22.40;31.00;;;;;;5075151;28;19927;-64
2024/01/17 02:41:16;;;;;;;;;;;22.30;31.00;;;;;;5073826;28;19929;-65
2024/01/17 02:43:42;;;;;;;;;;;22.40;31.00;;;;;;5107644;28;19928;-64
2024/01/17 02:46:07;;;;;;;;;;;22.30;31.00;;;;;;5075154;28;19921;-64
2024/01/17 02:48:33;;;;;;;;;;;22.40;31.00;;;;;;5107674;28;19921;-65
2024/01/17 02:50:58;;;;;;;;;;;22.30;31.00;;;;;;5073533;28;19920;-65
2024/01/17 02:53:24;;;;;;;;;;;22.30;31.00;;;;;;5074655;28;19924;-64
2024/01/17 02:55:49;;;;;;;;;;;22.30;31.00;;;;;;5107353;28;19969;-64
2024/01/17 02:58:15;;;;;;;;;;;22.30;31.10;;;;;;5074522;28;20376;-64
2024/01/17 03:00:43;;;;;;;;;;;22.30;31.10;;;;;;5107577;28;19920;-64
2024/01/17 03:03:09;;;;;;;;;;;22.20;31.00;;;;;;5074722;28;19920;-65
2024/01/17 03:05:37;;;;;;;;;;;22.20;31.00;;;;;;5106992;28;19925;-64
2024/01/17 03:08:04;;;;;;;;;;;22.20;31.00;;;;;;5107350;28;19966;-64
2024/01/17 03:10:29;;;;;;;;;;;22.20;31.00;;;;;;5106973;28;19921;-64
2024/01/17 03:12:56;;;;;;;;;;;22.10;31.00;;;;;;5073061;28;20015;-64
2024/01/17 03:15:22;;;;;;;;;;;22.20;31.10;;;;;;5072849;28;20019;-64
2024/01/17 03:17:48;;;;;;;;;;;22.10;31.00;;;;;;5107087;28;19920;-64
2024/01/17 03:20:13;;;;;;;;;;;22.10;31.10;;;;;;5074191;28;20384;-64
2024/01/17 03:22:40;;;;;;;;;;;22.10;31.00;;;;;;5072927;28;20383;-64
2024/01/17 03:25:06;;;;;;;;;;;22.10;31.10;;;;;;5074148;28;19925;-64
2024/01/17 03:27:31;;;;;;;;;;;22.10;31.10;;;;;;5074062;28;19924;-65
2024/01/17 03:29:57;;;;;;;;;;;22.10;31.10;;;;;;5072647;28;20449;-64
2024/01/17 03:32:22;;;;;;;;;;;22.10;31.10;;;;;;5074011;28;19927;-67
2024/01/17 03:34:48;;;;;;;;;;;22.10;31.10;;;;;;5106447;28;19963;-64
2024/01/17 03:37:14;;;;;;;;;;;22.10;31.20;;;;;;5072960;28;19920;-64
2024/01/17 03:39:42;;;;;;;;;;;22.00;31.10;;;;;;5106394;28;20402;-64
2024/01/17 03:42:07;;;;;;;;;;;22.10;31.10;;;;;;5106275;28;19927;-64
2024/01/17 03:44:33;;;;;;;;;;;22.00;31.10;;;;;;5072845;28;19920;-64
2024/01/17 03:46:58;;;;;;;;;;;22.00;31.10;;;;;;5106518;28;20003;-64
2024/01/17 03:49:24;;;;;;;;;;;22.00;31.10;;;;;;5106385;28;20406;-64
2024/01/17 03:51:49;;;;;;;;;;;22.00;31.10;;;;;;5073665;28;19926;-64
2024/01/17 03:54:15;;;;;;;;;;;22.00;31.10;;;;;;5072349;28;19931;-65
2024/01/17 03:56:40;;;;;;;;;;;22.00;31.10;;;;;;5073441;28;19946;-64
2024/01/17 03:59:09;;;;;;;;;;;22.00;31.10;;;;;;5106512;28;19921;-65
2024/01/17 04:01:41;;;;;;;;;;;22.00;31.20;;;;;;5072158;28;19924;-64
2024/01/17 04:04:07;;;;;;;;;;;22.00;31.10;;;;;;5089266;28;20273;-64
2024/01/17 04:06:32;;;;;;;;;;;22.00;31.10;;;;;;5106260;28;19959;-64
2024/01/17 04:09:05;;;;;;;;;;;22.00;31.10;;;;;;5072467;28;19998;-64
2024/01/17 04:11:30;;;;;;;;;;;22.00;31.10;;;;;;5105800;28;19921;-64
2024/01/17 04:13:56;;;;;;;;;;;22.00;31.00;;;;;;5073121;28;19924;-65
2024/01/17 04:16:21;;;;;;;;;;;22.00;31.10;;;;;;5073242;28;20360;-64
2024/01/17 04:18:50;;;;;;;;;;;22.10;31.20;;;;;;5106009;28;20014;-64
2024/01/17 04:21:18;;;;;;;;;;;22.00;31.10;;;;;;5071674;28;19920;-65
2024/01/17 04:23:44;;;;;;;;;;;22.00;31.10;;;;;;5073414;28;19927;-64
2024/01/17 04:26:18;;;;;;;;;;;22.00;31.90;;;;;;5072892;28;20528;-64
2024/01/17 04:28:43;;;;;;;;;;;22.00;31.10;;;;;;5071885;28;19921;-64
2024/01/17 04:31:09;;;;;;;;;;;21.90;31.10;;;;;;5105780;28;19928;-65
2024/01/17 04:33:34;;;;;;;;;;;22.00;31.10;;;;;;5071846;28;20287;-65
2024/01/17 04:36:00;;;;;;;;;;;21.90;31.00;;;;;;5105457;28;19921;-64
2024/01/17 04:38:25;;;;;;;;;;;21.90;31.10;;;;;;5071761;28;19932;-65
2024/01/17 04:40:51;;;;;;;;;;;21.90;31.10;;;;;;5072783;28;20335;-64
2024/01/17 04:43:16;;;;;;;;;;;21.90;31.10;;;;;;5105472;28;19927;-65
2024/01/17 04:45:47;;;;;;;;;;;21.80;31.10;;;;;;5104839;28;19947;-64
2024/01/17 04:48:13;;;;;;;;;;;21.80;31.10;;;;;;5072566;28;20324;-64
2024/01/17 04:50:39;;;;;;;;;;;21.80;31.20;;;;;;5071601;28;19963;-66
2024/01/17 04:53:04;;;;;;;;;;;21.80;31.20;;;;;;5072212;28;20337;-64
2024/01/17 04:55:30;;;;;;;;;;;21.80;31.20;;;;;;5105182;28;19920;-65
2024/01/17 04:57:55;;;;;;;;;;;21.70;31.10;;;;;;5105266;28;19925;-64
2024/01/17 05:00:21;;;;;;;;;;;21.80;31.10;;;;;;5071246;28;19928;-65
2024/01/17 05:02:46;;;;;;;;;;;21.70;31.10;;;;;;5071515;28;19920;-64
2024/01/17 05:05:15;;;;;;;;;;;21.70;31.10;;;;;;5072517;28;19932;-64
2024/01/17 05:07:40;;;;;;;;;;;21.80;31.10;;;;;;5071437;28;19920;-64
2024/01/17 05:10:07;;;;;;;;;;;21.80;31.10;;;;;;5071461;28;20193;-64
2024/01/17 05:12:33;;;;;;;;;;;21.90;31.10;;;;;;5071125;28;19921;-64
2024/01/17 05:14:58;;;;;;;;;;;21.90;31.00;;;;;;5104874;28;19925;-64
2024/01/17 05:17:24;;;;;;;;;;;22.00;30.90;;;;;;5105465;28;20434;-64
2024/01/17 05:19:50;;;;;;;;;;;22.00;30.90;;;;;;5070970;28;19921;-64
2024/01/17 05:22:15;;;;;;;;;;;22.10;30.80;;;;;;5070967;28;19920;-65
2024/01/17 05:24:41;;;;;;;;;;;22.10;30.70;;;;;;5105018;28;19927;-64
2024/01/17 05:27:06;;;;;;;;;;;22.20;30.70;;;;;;5071102;28;20337;-64
2024/01/17 05:29:35;;;;;;;;;;;22.20;30.60;;;;;;5104981;28;19924;-64
2024/01/17 05:32:01;;;;;;;;;;;22.20;30.60;;;;;;5072183;28;19966;-64
2024/01/17 05:34:26;;;;;;;;;;;22.20;30.50;;;;;;5104767;28;19963;-64
2024/01/17 05:36:55;;;;;;;;;;;22.20;30.50;;;;;;5071264;28;19947;-65
2024/01/17 05:39:20;;;;;;;;;;;22.30;30.50;;;;;;5072005;28;20371;-65
2024/01/17 05:41:46;;;;;;;;;;;22.20;30.50;;;;;;5104895;28;19920;-64
2024/01/17 05:44:11;;;;;;;;;;;22.30;30.50;;;;;;5070699;28;19921;-65
2024/01/17 05:46:37;;;;;;;;;;;22.20;30.50;;;;;;5104842;28;19970;-64
2024/01/17 05:49:03;;;;;;;;;;;22.20;30.50;;;;;;5071999;28;19927;-64
2024/01/17 05:51:28;;;;;;;;;;;22.20;30.50;;;;;;5070993;28;20011;-65
2024/01/17 05:53:54;;;;;;;;;;;22.20;30.50;;;;;;5070851;28;20007;-65
2024/01/17 05:56:19;;;;;;;;;;;22.20;30.50;;;;;;5071968;28;20002;-64
2024/01/17 05:58:45;;;;;;;;;;;22.10;30.50;;;;;;5108678;28;19924;-65
2024/01/17 06:01:10;;;;;;;;;;;22.10;30.50;;;;;;5075869;28;19924;-64
2024/01/17 06:03:36;;;;;;;;;;;22.20;30.50;;;;;;5074753;28;19974;-64
2024/01/17 06:06:01;;;;;;;;;;;22.20;30.50;;;;;;5074279;28;20410;-65
2024/01/17 06:08:27;;;;;;;;;;;22.20;30.40;;;;;;5108772;28;20011;-65
2024/01/17 06:10:52;;;;;;;;;;;22.20;30.40;;;;;;5075823;28;19920;-64
2024/01/17 06:13:18;;;;;;;;;;;22.20;30.40;;;;;;5108352;28;19927;-66
2024/01/17 06:15:43;;;;;;;;;;;22.20;30.30;;;;;;5075583;28;19924;-65
2024/01/17 06:18:09;;;;;;;;;;;22.20;30.20;;;;;;5075358;28;19920;-65
2024/01/17 06:20:35;;;;;;;;;;;22.20;30.20;;;;;;5108279;28;19924;-64
2024/01/17 06:23:01;;;;;;;;;;;22.20;30.20;;;;;;5075407;28;20019;-65
2024/01/17 06:25:26;;;;;;;;;;;22.20;30.20;;;;;;5075217;28;19963;-66
2024/01/17 06:27:52;;;;;;;;;;;22.20;30.20;;;;;;5074026;28;19990;-67
2024/01/17 06:30:17;;;;;;;;;;;22.20;30.20;;;;;;5056722;28;20373;-65
2024/01/17 06:32:46;;;;;;;;;;;22.20;30.20;;;;;;5073805;28;20395;-64
2024/01/17 06:35:11;;;;;;;;;;;22.20;30.30;;;;;;5072492;28;19931;-65
2024/01/17 06:37:37;;;;;;;;;;;22.20;30.20;;;;;;5072111;28;19924;-67
2024/01/17 06:40:04;;;;;;;;;;;22.20;30.20;;;;;;5070973;28;20283;-64
2024/01/17 06:42:29;;;;;;;;;;;22.20;30.40;;;;;;5072003;28;19981;-64
2024/01/17 06:44:58;;;;;;;;;;;22.20;30.60;;;;;;5073286;28;20431;-66
2024/01/17 06:47:23;;;;;;;;;;;22.20;30.30;;;;;;5073106;28;19927;-64
2024/01/17 06:49:50;;;;;;;;;;;22.30;30.20;;;;;;5073029;28;19920;-64
2024/01/17 06:52:16;;;;;;;;;;;22.30;30.00;;;;;;5063889;28;19969;-64
2024/01/17 06:54:41;;;;;;;;;;;22.50;30.00;;;;;;5066205;28;20011;-64
2024/01/17 06:57:08;;;;;;;;;;;22.60;30.00;;;;;;5071694;28;20329;-64
2024/01/17 06:59:33;;;;;;;;;;;22.70;29.40;;;;;;5068081;28;20257;-64
2024/01/17 07:01:59;;;;;;;;;;;22.80;29.10;;;;;;5071061;28;19973;-65
2024/01/17 07:04:24;;;;;;;;;;;22.90;28.80;;;;;;5076379;28;20382;-64
2024/01/17 07:06:50;;;;;;;;;;;23.00;28.70;;;;;;5077726;28;19928;-63
2024/01/17 07:09:15;;;;;;;;;;;23.10;29.00;;;;;;5080660;28;19920;-64
2024/01/17 07:11:41;;;;;;;;;;;23.10;29.00;;;;;;5074619;28;19959;-63
2024/01/17 07:14:07;;;;;;;;;;;23.20;29.10;;;;;;5071585;28;20308;-66
2024/01/17 07:16:33;;;;;;;;;;;23.20;29.10;;;;;;5062130;28;19932;-66
2024/01/17 07:18:59;;;;;;;;;;;23.20;29.20;;;;;;5051878;28;19960;-65
2024/01/17 07:21:25;;;;;;;;;;;23.20;29.10;;;;;;5055727;28;19928;-65
2024/01/17 07:23:51;;;;;;;;;;;23.20;29.20;;;;;;5088351;28;20233;-65
2024/01/17 07:26:17;;;;;;;;;;;23.10;29.20;;;;;;5059217;28;19931;-66
2024/01/17 07:28:42;;;;;;;;;;;23.00;29.40;;;;;;5091664;28;19925;-64
2024/01/17 07:31:08;;;;;;;;;;;22.90;29.50;;;;;;5095323;28;19924;-63
2024/01/17 07:33:33;;;;;;;;;;;22.80;29.40;;;;;;5094865;28;19927;-63
2024/01/17 07:35:59;;;;;;;;;;;22.60;29.20;;;;;;5063595;28;19930;-66
2024/01/17 07:38:25;;;;;;;;;;;22.50;29.20;;;;;;5060215;28;20015;-67
2024/01/17 07:40:50;;;;;;;;;;;22.50;29.20;;;;;;5061257;28;19924;-64
2024/01/17 07:43:17;;;;;;;;;;;22.40;29.30;;;;;;5062947;28;19924;-64
2024/01/17 07:45:42;;;;;;;;;;;22.40;29.50;;;;;;5047800;28;20007;-64
2024/01/17 07:48:08;;;;;;;;;;;22.40;29.60;;;;;;5064386;28;19928;-65
2024/01/17 07:50:34;;;;;;;;;;;22.40;29.70;;;;;;5097668;28;19962;-65
2024/01/17 07:53:01;;;;;;;;;;;22.40;29.80;;;;;;5062206;28;20309;-63
2024/01/17 07:55:26;;;;;;;;;;;22.40;29.90;;;;;;5066218;28;19929;-65
2024/01/17 07:57:52;;;;;;;;;;;22.40;30.00;;;;;;5066890;28;20003;-65
2024/01/17 08:00:18;;;;;;;;;;;22.40;30.00;;;;;;5062656;28;19959;-67
2024/01/17 08:02:47;;;;;;;;;;;22.40;30.10;;;;;;5066257;28;19920;-64
2024/01/17 08:05:12;;;;;;;;;;;22.40;30.10;;;;;;5066490;28;19920;-64
2024/01/17 08:07:38;;;;;;;;;;;22.30;30.00;;;;;;5064170;28;19970;-63
2024/01/17 08:10:03;;;;;;;;;;;22.40;30.10;;;;;;5060669;28;19924;-65
2024/01/17 08:12:29;;;;;;;;;;;22.50;30.10;;;;;;5065144;28;19928;-65
2024/01/17 08:14:55;;;;;;;;;;;22.80;30.00;;;;;;5061392;28;19933;-65
2024/01/17 08:17:20;;;;;;;;;;;23.20;29.70;;;;;;5095634;28;19981;-68
2024/01/17 08:19:46;;;;;;;;;;;23.40;29.40;;;;;;5058817;28;20031;-67
2024/01/17 08:22:12;;;;;;;;;;;23.60;29.20;;;;;;5061681;28;20031;-64
2024/01/17 08:24:38;;;;;;;;;;;23.80;29.10;;;;;;5063336;28;20383;-65
2024/01/17 08:27:03;;;;;;;;;;;23.90;28.90;;;;;;5079893;28;19924;-67
2024/01/17 08:29:29;;;;;;;;;;;24.00;28.90;;;;;;5064401;28;19920;-67
2024/01/17 08:31:55;;;;;;;;;;;24.10;28.70;;;;;;5063513;28;20370;-65
2024/01/17 08:34:21;;;;;;;;;;;24.10;28.60;;;;;;5060499;28;20022;-66
2024/01/17 08:36:47;;;;;;;;;;;24.10;28.60;;;;;;5063064;28;19920;-65
2024/01/17 08:39:12;;;;;;;;;;;24.20;28.60;;;;;;5061963;28;19925;-65
2024/01/17 08:41:40;;;;;;;;;;;24.20;29.20;;;;;;5090305;28;19928;-65
2024/01/17 08:44:05;;;;;;;;;;;24.10;28.60;;;;;;5059766;28;20390;-64
2024/01/17 08:46:31;;;;;;;;;;;24.10;28.50;;;;;;5061356;28;19924;-65
2024/01/17 08:48:56;;;;;;;;;;;24.10;28.60;;;;;;5064090;28;20398;-64
2024/01/17 08:51:24;;;;;;;;;;;24.10;29.20;;;;;;5063188;28;19920;-66
2024/01/17 08:53:50;;;;;;;;;;;24.10;28.60;;;;;;5090903;28;19927;-67
2024/01/17 08:56:18;;;;;;;;;;;24.10;28.50;;;;;;5061529;28;19928;-65
2024/01/17 08:58:44;;;;;;;;;;;24.10;28.60;;;;;;5063038;28;19936;-65
2024/01/17 09:01:10;;;;;;;;;;;24.10;28.50;;;;;;5062137;28;19920;-66
2024/01/17 09:03:39;;;;;;;;;;;24.10;28.50;;;;;;5056762;28;19928;-68
2024/01/17 09:06:05;;;;;;;;;;;24.00;28.50;;;;;;5057751;28;20027;-65
2024/01/17 09:08:30;;;;;;;;;;;24.00;28.60;;;;;;5063436;28;20015;-67
2024/01/17 09:10:56;;;;;;;;;;;24.00;28.50;;;;;;5062833;28;20351;-66
2024/01/17 09:13:21;;;;;;;;;;;24.00;28.50;;;;;;5062997;28;19925;-65
2024/01/17 09:15:47;;;;;;;;;;;24.00;28.60;;;;;;5059652;28;20372;-70
2024/01/17 09:18:15;;;;;;;;;;;24.00;28.60;;;;;;5050618;28;20276;-70
2024/01/17 09:20:40;;;;;;;;;;;24.00;28.60;;;;;;5085715;28;19931;-65
2024/01/17 09:23:06;;;;;;;;;;;24.10;28.60;;;;;;5058448;28;19925;-67
2024/01/17 09:25:31;;;;;;;;;;;24.10;28.50;;;;;;5083617;28;20447;-66
2024/01/17 09:27:57;;;;;;;;;;;24.10;28.30;;;;;;5056749;28;19934;-66
2024/01/17 09:30:22;;;;;;;;;;;24.00;28.00;;;;;;5059127;28;19931;-66
2024/01/17 09:32:48;;;;;;;;;;;23.90;27.80;;;;;;5056980;28;20098;-66
2024/01/17 09:35:14;;;;;;;;;;;23.90;27.70;;;;;;5052631;28;20466;-65
2024/01/17 09:37:40;;;;;;;;;;;23.90;28.40;;;;;;5060520;28;20015;-70
2024/01/17 09:40:06;;;;;;;;;;;24.00;27.90;;;;;;5065292;28;19931;-68
2024/01/17 09:42:32;;;;;;;;;;;24.10;28.20;;;;;;5062746;28;19925;-68
2024/01/17 09:44:58;;;;;;;;;;;24.40;28.20;;;;;;5064823;28;20220;-66
2024/01/17 09:47:24;;;;;;;;;;;24.60;28.00;;;;;;5065744;28;19928;-65
2024/01/17 09:49:50;;;;;;;;;;;24.80;27.70;;;;;;5090365;28;20291;-68
2024/01/17 09:52:17;;;;;;;;;;;24.70;27.60;;;;;;5060278;28;19924;-70
2024/01/17 09:54:45;;;;;;;;;;;24.70;27.60;;;;;;5060800;28;19931;-69
2024/01/17 09:57:13;;;;;;;;;;;24.70;27.80;;;;;;5062035;28;19924;-69
2024/01/17 09:59:43;;;;;;;;;;;24.70;27.80;;;;;;5061938;28;19928;-69
2024/01/17 10:02:12;;;;;;;;;;;24.60;27.80;;;;;;5057151;28;19924;-66
2024/01/17 10:04:40;;;;;;;;;;;24.70;27.90;;;;;;5060397;28;19929;-70
2024/01/17 10:07:06;;;;;;;;;;;24.50;27.90;;;;;;5077497;28;20749;-67
2024/01/17 10:09:32;;;;;;;;;;;24.50;28.10;;;;;;5059025;28;20406;-68
2024/01/17 10:11:59;;;;;;;;;;;24.50;28.10;;;;;;5057573;28;19928;-73
2024/01/17 10:14:27;;;;;;;;;;;24.50;28.20;;;;;;5090731;28;19932;-70
2024/01/17 10:16:53;;;;;;;;;;;24.50;28.30;;;;;;5056184;28;19936;-71
2024/01/17 10:19:18;;;;;;;;;;;24.40;28.50;;;;;;5059440;28;19920;-69
2024/01/17 10:21:44;;;;;;;;;;;24.40;28.40;;;;;;5059290;28;19924;-70
2024/01/17 10:24:11;;;;;;;;;;;24.40;28.50;;;;;;5061727;28;19920;-66
2024/01/17 10:26:39;;;;;;;;;;;24.30;28.60;;;;;;5057574;28;19928;-71
2024/01/17 10:29:05;;;;;;;;;;;24.40;28.70;;;;;;5060902;28;19928;-67
2024/01/17 10:31:30;;;;;;;;;;;24.50;28.70;;;;;;5059897;28;19974;-70
2024/01/17 10:34:02;;;;;;;;;;;24.70;28.70;;;;;;5059788;28;19965;-67
2024/01/17 10:36:27;;;;;;;;;;;24.70;28.60;;;;;;5061975;28;19921;-69
2024/01/17 10:39:00;;;;;;;;;;;24.80;28.50;;;;;;5062153;28;19925;-66
2024/01/17 10:41:25;;;;;;;;;;;24.80;28.40;;;;;;5081726;28;19932;-67
2024/01/17 10:43:53;;;;;;;;;;;24.60;28.40;;;;;;5058049;28;20342;-66
2024/01/17 10:46:19;;;;;;;;;;;24.30;28.50;;;;;;5055181;28;20013;-67
2024/01/17 10:48:44;;;;;;;;;;;24.00;28.80;;;;;;5054290;28;20406;-66
2024/01/17 10:51:12;;;;;;;;;;;23.80;29.10;;;;;;5087561;28;20800;-65
2024/01/17 10:53:38;;;;;;;;;;;23.60;29.40;;;;;;5075500;28;19974;-67
2024/01/17 10:56:04;;;;;;;;;;;23.50;29.60;;;;;;5089746;28;20030;-67
2024/01/17 10:58:31;;;;;;;;;;;23.40;29.70;;;;;;5067033;28;20039;-67
2024/01/17 11:00:58;;;;;;;;;;;23.40;29.80;;;;;;5093962;28;20497;-67
2024/01/17 11:03:28;;;;;;;;;;;23.40;29.90;;;;;;5064540;28;20441;-69
2024/01/17 11:05:55;;;;;;;;;;;23.40;30.00;;;;;;5054374;28;19925;-66
2024/01/17 11:08:21;;;;;;;;;;;23.50;30.00;;;;;;5046197;28;20422;-67
2024/01/17 11:10:47;;;;;;;;;;;23.70;29.90;;;;;;5057304;28;19982;-67
2024/01/17 11:13:14;;;;;;;;;;;23.80;29.90;;;;;;5055072;28;20439;-67
2024/01/17 11:15:41;;;;;;;;;;;23.80;29.70;;;;;;5086844;28;20425;-66
2024/01/17 11:18:08;;;;;;;;;;;23.90;29.70;;;;;;5060483;28;20319;-66
2024/01/17 11:20:34;;;;;;;;;;;23.90;29.70;;;;;;5060778;28;20336;-67
2024/01/17 11:23:01;;;;;;;;;;;24.00;29.60;;;;;;5057673;28;19928;-67
2024/01/17 11:31:05;;;;;;;;;;;24.10;29.40;;;;;;5093994;27;19930;-66
2024/01/17 11:33:31;;;;;;;;;;;24.10;30.00;;;;;;5105414;27;19927;-66
2024/01/17 11:35:57;;;;;;;;;;;24.10;29.50;;;;;;5076271;28;20303;-66
2024/01/17 11:41:06;;;;;;;;;;;24.00;28.80;;;;;;5074550;27;19920;-67
2024/01/17 11:43:34;;;;;;;;;;;23.90;28.70;;;;;;5068964;28;19927;-71
2024/01/17 11:46:01;;;;;;;;;;;23.90;28.80;;;;;;5062316;28;19925;-71
2024/01/17 11:48:27;;;;;;;;;;;24.00;28.70;;;;;;5061043;28;19924;-70
2024/01/17 11:50:57;;;;;;;;;;;24.10;28.70;;;;;;5058324;28;20011;-71
2024/01/17 11:53:23;;;;;;;;;;;24.20;28.60;;;;;;5060402;28;19928;-70
2024/01/17 11:55:49;;;;;;;;;;;24.40;28.60;;;;;;5065006;28;19920;-71
2024/01/17 11:58:15;;;;;;;;;;;24.50;28.30;;;;;;5082482;28;19934;-71
2024/01/17 12:00:41;;;;;;;;;;;24.40;28.20;;;;;;5061423;28;20446;-69
2024/01/17 12:03:06;;;;;;;;;;;24.40;28.40;;;;;;5076415;28;19931;-69
2024/01/17 12:05:35;;;;;;;;;;;24.30;28.50;;;;;;5078841;28;19920;-70
2024/01/17 12:08:03;;;;;;;;;;;24.30;28.60;;;;;;5063796;28;19920;-71
2024/01/17 12:10:29;;;;;;;;;;;24.30;28.40;;;;;;5062813;28;19932;-69
2024/01/17 12:12:56;;;;;;;;;;;24.20;28.30;;;;;;5067823;28;19920;-71
2024/01/17 12:15:23;;;;;;;;;;;24.10;28.20;;;;;;5066982;28;19927;-65
2024/01/17 12:17:48;;;;;;;;;;;24.00;28.30;;;;;;5078970;28;19923;-65
2024/01/17 12:20:15;;;;;;;;;;;23.80;28.40;;;;;;5068752;28;19939;-65
2024/01/17 12:22:45;;;;;;;;;;;23.70;28.50;;;;;;5065723;28;19935;-66
2024/01/17 12:25:11;;;;;;;;;;;23.60;28.60;;;;;;5069942;28;19934;-66
2024/01/17 12:27:36;;;;;;;;;;;23.70;28.70;;;;;;5063727;28;19920;-67
2024/01/17 12:30:03;;;;;;;;;;;23.80;28.60;;;;;;5082491;28;19972;-67
2024/01/17 12:32:28;;;;;;;;;;;23.90;28.40;;;;;;5050418;28;20212;-70
2024/01/17 12:34:55;;;;;;;;;;;24.00;28.30;;;;;;5041390;28;19924;-67
2024/01/17 12:37:20;;;;;;;;;;;24.10;28.30;;;;;;5066706;28;19969;-68
2024/01/17 12:39:46;;;;;;;;;;;24.20;28.30;;;;;;5071365;28;19928;-70
2024/01/17 12:42:21;;;;;;;;;;;24.30;28.20;;;;;;5068074;28;19942;-67
2024/01/17 12:44:46;;;;;;;;;;;24.40;28.20;;;;;;5091867;28;19924;-68
2024/01/17 12:47:13;;;;;;;;;;;24.50;28.10;;;;;;5087925;28;20340;-66
2024/01/17 12:49:38;;;;;;;;;;;24.50;28.10;;;;;;5069185;28;20406;-66
2024/01/17 12:52:04;;;;;;;;;;;24.50;27.90;;;;;;5076595;28;19924;-66
2024/01/17 12:54:30;;;;;;;;;;;24.40;28.00;;;;;;5073439;28;20008;-64
2024/01/17 12:56:56;;;;;;;;;;;24.30;28.00;;;;;;5065364;28;19928;-66
2024/01/17 12:59:22;;;;;;;;;;;24.20;27.90;;;;;;5051213;28;20023;-65
2024/01/17 13:01:47;;;;;;;;;;;24.10;28.10;;;;;;5051437;28;20623;-66
2024/01/17 13:04:13;;;;;;;;;;;24.10;28.20;;;;;;5035926;28;19932;-66
2024/01/17 13:06:42;;;;;;;;;;;24.00;28.20;;;;;;5054530;28;20029;-67
2024/01/17 13:09:13;;;;;;;;;;;23.90;28.30;;;;;;5053248;28;20446;-66
2024/01/17 13:11:50;;;;;;;;;;;23.80;28.30;;;;;;5074011;28;20557;-66
2024/01/17 13:14:17;;;;;;;;;;;23.80;28.60;;;;;;5075278;28;20030;-67
2024/01/17 13:16:42;;;;;;;;;;;23.60;28.60;;;;;;5079559;28;19948;-67
2024/01/17 13:19:10;;;;;;;;;;;23.60;28.80;;;;;;5080003;28;19971;-66
2024/01/17 13:21:35;;;;;;;;;;;23.60;28.90;;;;;;5062511;28;20003;-68
2024/01/17 13:24:01;;;;;;;;;;;23.60;29.00;;;;;;5080207;28;20010;-67
2024/01/17 13:26:26;;;;;;;;;;;23.60;29.00;;;;;;5081637;28;19934;-67
2024/01/17 13:28:52;;;;;;;;;;;23.50;29.00;;;;;;5063293;28;19935;-67
2024/01/17 13:31:17;;;;;;;;;;;23.50;29.10;;;;;;5081607;28;19920;-68
2024/01/17 13:33:43;;;;;;;;;;;23.40;29.10;;;;;;5062941;28;19920;-67
2024/01/17 13:36:12;;;;;;;;;;;23.30;29.20;;;;;;5062291;28;19936;-68
2024/01/17 13:38:39;;;;;;;;;;;23.20;29.30;;;;;;5054911;28;19927;-67
2024/01/17 13:41:05;;;;;;;;;;;23.20;29.40;;;;;;5053808;28;20014;-67
2024/01/17 13:43:30;;;;;;;;;;;23.00;29.40;;;;;;5053775;28;19986;-67
2024/01/17 13:45:59;;;;;;;;;;;22.90;29.60;;;;;;5071496;28;20062;-68
2024/01/17 13:48:24;;;;;;;;;;;22.80;29.60;;;;;;5053555;28;19924;-67
2024/01/17 13:50:50;;;;;;;;;;;22.70;29.70;;;;;;5053244;28;19920;-67
2024/01/17 13:53:28;;;;;;;;;;;22.60;29.80;;;;;;5052039;28;19920;-67
2024/01/17 13:55:55;;;;;;;;;;;22.50;29.90;;;;;;5048070;28;20387;-68
2024/01/17 13:58:22;;;;;;;;;;;22.40;29.90;;;;;;5067943;28;20281;-67
2024/01/17 14:00:48;;;;;;;;;;;22.30;29.90;;;;;;5049609;28;20442;-67
2024/01/17 14:03:14;;;;;;;;;;;22.30;30.00;;;;;;5050559;28;20391;-67
2024/01/17 14:05:39;;;;;;;;;;;22.20;30.00;;;;;;5053178;28;19926;-67
2024/01/17 14:08:06;;;;;;;;;;;22.10;30.10;;;;;;5052483;28;20003;-67
2024/01/17 14:10:31;;;;;;;;;;;22.00;30.10;;;;;;5072053;28;19927;-67
2024/01/17 14:12:59;;;;;;;;;;;21.90;30.20;;;;;;5052941;28;20208;-67
2024/01/17 14:15:25;;;;;;;;;;;21.80;30.20;;;;;;5053539;28;19930;-67
2024/01/17 14:17:51;;;;;;;;;;;21.70;30.30;;;;;;5053012;28;19943;-67